Time;durP1;ratioP1;P1;durP2;ratioP2;P2;SDS_P1;SDS_P2;PMS_P1;PMS_P2;Temp;Humidity;BMP_temperature;BMP_pressure;BME280_temperature;BME280_humidity;BME280_pressure;Samples;Min_cycle;Max_cycle;Signal;HPM_P1;HPM_P2
2023/10/17 00:01:32;;;;;;;11.00;5.28;;;8.60;99.90;;;;;;4795209;29;20043;-57
2023/10/17 00:03:59;;;;;;;10.20;5.45;;;8.60;99.90;;;;;;4794536;29;20055;-57
2023/10/17 00:06:25;;;;;;;11.30;5.13;;;8.70;99.90;;;;;;4795051;30;20047;-57
2023/10/17 00:08:51;;;;;;;11.13;5.18;;;8.70;99.90;;;;;;4794791;29;20059;-57
2023/10/17 00:11:17;;;;;;;11.25;5.28;;;8.70;99.90;;;;;;4795024;29;20149;-57
2023/10/17 00:16:39;;;;;;;9.75;5.20;;;8.70;99.90;;;;;;4793864;29;20047;-57
2023/10/17 00:19:05;;;;;;;10.90;5.38;;;8.80;99.90;;;;;;4795022;29;20187;-57
2023/10/17 00:21:33;;;;;;;11.52;5.40;;;8.70;99.90;;;;;;4794636;29;20051;-57
2023/10/17 00:24:08;;;;;;;11.75;5.65;;;8.70;99.90;;;;;;4793602;29;20047;-57
2023/10/17 00:26:35;;;;;;;10.95;6.00;;;8.70;99.90;;;;;;4793763;29;20059;-57
2023/10/17 00:29:04;;;;;;;12.00;5.30;;;8.70;99.90;;;;;;4794738;29;20069;-57
2023/10/17 00:31:30;;;;;;;10.82;4.82;;;8.70;99.90;;;;;;4794345;29;20058;-57
2023/10/17 00:34:00;;;;;;;11.30;5.00;;;8.60;99.90;;;;;;4794065;29;20059;-57
2023/10/17 00:36:26;;;;;;;10.85;6.03;;;8.60;99.90;;;;;;4794502;30;20062;-57
2023/10/17 00:38:54;;;;;;;10.32;5.18;;;8.60;99.90;;;;;;4794109;30;20143;-57
2023/10/17 00:41:33;;;;;;;10.80;4.93;;;8.70;99.90;;;;;;4794708;29;20062;-57
2023/10/17 00:43:59;;;;;;;13.23;5.43;;;8.70;99.90;;;;;;4794368;29;20075;-57
2023/10/17 00:46:25;;;;;;;10.23;5.60;;;8.70;99.90;;;;;;4794202;29;20051;-57
2023/10/17 00:48:52;;;;;;;12.18;5.10;;;8.70;99.90;;;;;;4794647;29;20047;-57
2023/10/17 00:51:21;;;;;;;11.07;5.57;;;8.60;99.90;;;;;;4793771;29;20126;-57
2023/10/17 00:53:47;;;;;;;12.48;5.80;;;8.70;99.90;;;;;;4794001;29;20055;-57
2023/10/17 00:56:13;;;;;;;11.68;5.40;;;8.60;99.90;;;;;;4793677;29;20054;-57
2023/10/17 00:58:42;;;;;;;11.65;6.32;;;8.70;99.90;;;;;;4794486;29;20051;-56
2023/10/17 01:01:20;;;;;;;11.20;5.55;;;8.60;99.90;;;;;;4777728;30;20051;-57
2023/10/17 01:03:48;;;;;;;12.60;6.20;;;8.60;99.90;;;;;;4801476;29;20135;-57
2023/10/17 01:06:23;;;;;;;10.57;6.28;;;8.70;99.90;;;;;;4811854;29;20491;-57
2023/10/17 01:08:50;;;;;;;12.40;5.93;;;8.60;99.90;;;;;;4811970;29;20043;-57
2023/10/17 01:11:22;;;;;;;12.57;5.63;;;8.70;99.90;;;;;;4812007;29;20050;-57
2023/10/17 01:13:52;;;;;;;11.18;5.88;;;8.60;99.90;;;;;;4811734;29;20069;-57
2023/10/17 01:16:19;;;;;;;9.40;5.82;;;8.70;99.90;;;;;;4811568;29;20042;-57
2023/10/17 01:18:45;;;;;;;10.45;5.13;;;8.70;99.90;;;;;;4812107;29;20042;-57
2023/10/17 01:21:18;;;;;;;11.10;6.28;;;8.70;99.90;;;;;;4811602;29;20050;-57
2023/10/17 01:23:47;;;;;;;13.48;5.75;;;8.60;99.90;;;;;;4810452;29;20102;-57
2023/10/17 01:26:20;;;;;;;11.00;5.75;;;8.70;99.90;;;;;;4811310;29;20088;-57
2023/10/17 01:28:47;;;;;;;12.23;6.20;;;8.60;99.90;;;;;;4811839;29;20125;-57
2023/10/17 01:31:22;;;;;;;17.75;6.32;;;8.60;99.90;;;;;;4811436;29;20051;-57
2023/10/17 01:33:59;;;;;;;11.43;6.63;;;8.60;99.90;;;;;;4802201;29;20114;-56
2023/10/17 01:36:25;;;;;;;11.70;6.15;;;8.60;99.90;;;;;;4793470;29;20195;-57
2023/10/17 01:38:52;;;;;;;10.88;6.13;;;8.50;99.90;;;;;;4792734;29;20444;-57
2023/10/17 01:41:18;;;;;;;11.15;5.82;;;8.40;99.90;;;;;;4793584;29;20086;-57
2023/10/17 01:43:47;;;;;;;11.73;6.40;;;8.50;99.90;;;;;;4793549;29;20057;-57
2023/10/17 01:46:21;;;;;;;11.55;5.93;;;8.50;99.90;;;;;;4793377;29;20085;-57
2023/10/17 01:48:48;;;;;;;12.60;5.43;;;8.40;99.90;;;;;;4793692;29;20115;-57
2023/10/17 01:51:15;;;;;;;8.90;5.28;;;8.40;99.90;;;;;;4793282;29;20101;-57
2023/10/17 01:53:43;;;;;;;9.55;5.00;;;8.40;99.90;;;;;;4792008;30;20107;-57
2023/10/17 01:56:13;;;;;;;8.57;4.78;;;8.30;99.90;;;;;;4791307;29;20459;-55
2023/10/17 01:58:48;;;;;;;9.20;4.80;;;8.30;99.90;;;;;;4793639;29;20075;-57
2023/10/17 02:01:17;;;;;;;10.57;5.50;;;8.30;99.90;;;;;;4793546;29;20054;-57
2023/10/17 02:03:44;;;;;;;10.85;4.28;;;8.20;99.90;;;;;;4793337;29;20687;-57
2023/10/17 02:06:16;;;;;;;9.65;4.75;;;8.20;99.90;;;;;;4793355;29;20169;-57
2023/10/17 02:08:45;;;;;;;9.55;4.60;;;8.10;99.90;;;;;;4792902;29;20055;-57
2023/10/17 02:11:24;;;;;;;9.23;4.90;;;8.20;99.90;;;;;;4793054;29;20078;-57
2023/10/17 02:13:52;;;;;;;8.65;4.35;;;8.10;99.90;;;;;;4792871;29;20051;-57
2023/10/17 02:16:17;;;;;;;8.45;4.53;;;8.10;99.90;;;;;;4792938;29;20056;-57
2023/10/17 02:18:44;;;;;;;8.70;4.00;;;8.10;99.90;;;;;;4793353;29;20066;-57
2023/10/17 02:21:12;;;;;;;8.80;4.40;;;8.10;99.90;;;;;;4792786;29;20059;-57
2023/10/17 02:23:49;;;;;;;10.10;4.15;;;8.00;99.90;;;;;;4792996;29;20112;-57
2023/10/17 02:26:21;;;;;;;11.18;5.50;;;8.00;99.90;;;;;;4792687;29;20047;-57
2023/10/17 02:28:50;;;;;;;8.52;4.30;;;7.90;99.90;;;;;;4791933;29;20424;-57
2023/10/17 02:31:17;;;;;;;8.00;4.45;;;7.90;99.90;;;;;;4793117;29;20059;-57
2023/10/17 02:33:43;;;;;;;9.43;4.35;;;7.80;99.90;;;;;;4792360;29;20059;-57
2023/10/17 02:36:12;;;;;;;9.13;3.85;;;7.80;99.90;;;;;;4791938;29;20055;-57
2023/10/17 02:38:41;;;;;;;9.73;3.92;;;7.70;99.90;;;;;;4792732;29;20111;-56
2023/10/17 02:41:18;;;;;;;8.77;3.83;;;7.80;99.90;;;;;;4807607;29;20504;-56
2023/10/17 02:43:48;;;;;;;6.97;3.58;;;7.70;99.90;;;;;;4810861;29;20054;-57
2023/10/17 02:46:14;;;;;;;9.48;3.50;;;7.60;99.90;;;;;;4810846;29;20107;-57
2023/10/17 02:48:45;;;;;;;7.95;3.42;;;7.50;99.90;;;;;;4811266;29;20047;-57
2023/10/17 02:53:50;;;;;;;7.93;3.60;;;7.40;99.90;;;;;;4814131;29;20062;-57
2023/10/17 02:56:18;;;;;;;7.15;3.22;;;7.50;99.90;;;;;;4813720;29;20135;-57
2023/10/17 02:58:49;;;;;;;8.35;3.30;;;7.50;99.90;;;;;;4814366;29;20051;-57
2023/10/17 03:01:15;;;;;;;6.88;3.35;;;7.40;99.90;;;;;;4814534;29;20055;-57
2023/10/17 03:03:42;;;;;;;8.00;4.25;;;7.40;99.90;;;;;;4813992;29;20054;-57
2023/10/17 03:06:15;;;;;;;6.43;3.72;;;7.40;99.90;;;;;;4814359;29;20043;-56
2023/10/17 03:08:48;;;;;;;7.35;3.70;;;7.30;99.90;;;;;;4812775;29;20069;-57
2023/10/17 03:11:17;;;;;;;7.78;3.63;;;7.30;99.90;;;;;;4814255;29;20055;-57
2023/10/17 03:13:46;;;;;;;9.60;4.47;;;7.40;99.90;;;;;;4812694;29;20066;-57
2023/10/17 03:16:25;;;;;;;8.60;3.80;;;7.30;99.90;;;;;;4812813;29;20059;-57
2023/10/17 03:18:57;;;;;;;9.18;3.72;;;7.20;99.90;;;;;;4814002;29;20097;-57
2023/10/17 03:21:33;;;;;;;6.93;3.65;;;7.20;99.90;;;;;;4813456;29;20102;-57
2023/10/17 03:24:05;;;;;;;8.65;4.22;;;7.20;99.90;;;;;;4813788;29;20061;-57
2023/10/17 03:26:40;;;;;;;8.23;3.70;;;7.10;99.90;;;;;;4813569;29;20055;-57
2023/10/17 03:29:23;;;;;;;8.13;3.95;;;7.10;99.90;;;;;;4813651;29;20062;-57
2023/10/17 03:31:53;;;;;;;8.77;4.40;;;7.10;99.90;;;;;;4813356;29;20090;-57
2023/10/17 03:34:34;;;;;;;8.10;4.18;;;7.10;99.90;;;;;;4800086;29;20123;-56
2023/10/17 03:37:26;;;;;;;8.68;4.20;;;7.00;99.90;;;;;;4795627;29;20144;-57
2023/10/17 03:39:53;;;;;;;8.73;4.18;;;7.10;99.90;;;;;;4795583;30;20484;-57
2023/10/17 03:45:16;;;;;;;7.30;4.15;;;7.00;99.90;;;;;;4795339;29;20059;-57
2023/10/17 03:47:47;;;;;;;9.75;4.57;;;6.90;99.90;;;;;;4795270;29;20051;-57
2023/10/17 03:50:31;;;;;;;8.07;3.97;;;6.90;99.90;;;;;;4795411;29;20047;-57
2023/10/17 03:53:15;;;;;;;7.13;4.25;;;6.90;99.90;;;;;;4795239;29;20059;-57
2023/10/17 03:55:49;;;;;;;9.57;4.20;;;6.80;99.90;;;;;;4794848;29;20073;-57
2023/10/17 04:00:52;;;;;;;9.40;4.20;;;6.70;99.90;;;;;;4794165;29;20061;-57
2023/10/17 04:14:00;;;;;;;8.57;4.20;;;6.70;99.90;;;;;;4793317;30;20421;-57
2023/10/17 04:16:33;;;;;;;7.60;4.00;;;6.70;99.90;;;;;;4794832;29;20075;-57
2023/10/17 04:19:04;;;;;;;9.02;4.32;;;6.80;99.90;;;;;;4793409;30;20047;-57
2023/10/17 04:21:45;;;;;;;10.00;4.88;;;6.80;99.90;;;;;;4794539;29;20055;-57
2023/10/17 04:24:13;;;;;;;8.95;4.28;;;6.70;99.90;;;;;;4794982;29;20062;-57
2023/10/17 04:26:45;;;;;;;9.75;4.10;;;6.70;99.90;;;;;;4794400;29;20139;-57
2023/10/17 04:29:11;;;;;;;8.43;4.22;;;6.70;99.90;;;;;;4794370;29;20048;-57
2023/10/17 04:31:43;;;;;;;10.18;4.25;;;6.70;99.90;;;;;;4794528;29;20088;-57
2023/10/17 04:34:14;;;;;;;12.15;4.95;;;6.80;99.90;;;;;;4794174;29;20093;-57
2023/10/17 04:36:41;;;;;;;11.23;4.78;;;6.80;99.90;;;;;;4794709;30;20054;-57
2023/10/17 04:44:17;;;;;;;9.05;4.95;;;6.90;99.90;;;;;;4793389;30;20055;-57
2023/10/17 04:49:30;;;;;;;8.10;4.25;;;6.90;99.90;;;;;;4812378;29;20582;-57
2023/10/17 04:52:08;;;;;;;8.00;4.18;;;7.00;99.90;;;;;;4810844;29;20076;-57
2023/10/17 04:57:04;;;;;;;8.15;3.67;;;7.00;99.90;;;;;;4812456;29;20047;-56
2023/10/17 06:18:38;;;;;;;5.68;2.33;;;7.30;99.90;;;;;;4789445;29;20087;-57
2023/10/17 06:31:55;;;;;;;6.05;2.53;;;7.20;99.90;;;;;;4792606;29;20059;-57
2023/10/17 06:34:22;;;;;;;7.38;2.55;;;7.20;99.90;;;;;;4792126;29;20070;-57
2023/10/17 06:36:59;;;;;;;6.15;2.45;;;7.20;99.90;;;;;;4792590;29;20569;-57
2023/10/17 06:39:27;;;;;;;9.43;3.35;;;7.10;99.90;;;;;;4791334;30;20063;-57
2023/10/17 06:42:00;;;;;;;7.05;2.50;;;7.10;99.90;;;;;;4792575;29;20055;-57
2023/10/17 06:44:26;;;;;;;5.70;2.90;;;7.10;99.90;;;;;;4793121;29;20523;-57
2023/10/17 06:49:30;;;;;;;7.80;2.50;;;7.20;99.90;;;;;;4791812;29;20418;-57
2023/10/17 06:54:41;;;;;;;8.17;2.70;;;7.20;99.90;;;;;;4792252;29;20067;-57
2023/10/17 06:57:19;;;;;;;7.32;2.47;;;7.30;99.90;;;;;;4792585;29;20138;-57
2023/10/17 06:59:52;;;;;;;8.00;3.03;;;7.30;99.90;;;;;;4790434;29;20115;-57
2023/10/17 07:02:27;;;;;;;7.82;2.42;;;7.30;99.90;;;;;;4792196;29;20050;-57
2023/10/17 07:05:00;;;;;;;8.32;2.65;;;7.40;99.90;;;;;;4792057;29;20059;-57
2023/10/17 07:07:31;;;;;;;;;;;7.40;99.90;;;;;;4791114;29;20084;-57
2023/10/17 07:12:50;;;;;;;8.07;3.15;;;7.50;99.90;;;;;;4791047;29;20070;-58
2023/10/17 07:15:19;;;;;;;8.27;3.35;;;7.60;99.90;;;;;;4791930;29;20102;-57
2023/10/17 07:18:36;;;;;;;7.30;2.90;;;7.60;99.90;;;;;;4791808;29;20133;-57
2023/10/17 07:23:20;;;;;;;6.47;2.55;;;7.80;99.90;;;;;;4791447;29;20621;-57
2023/10/17 07:25:56;;;;;;;4.97;2.13;;;7.90;99.90;;;;;;4791196;29;20043;-57
2023/10/17 07:28:22;;;;;;;5.30;2.33;;;7.90;99.90;;;;;;4791133;29;20040;-57
2023/10/17 07:30:57;;;;;;;5.95;2.10;;;7.90;99.90;;;;;;4790813;29;20117;-57
2023/10/17 07:33:24;;;;;;;8.75;1.90;;;8.10;99.90;;;;;;4788681;30;20066;-57
2023/10/17 07:35:58;;;;;;;5.82;1.73;;;8.20;99.90;;;;;;4789453;29;20382;-57
2023/10/17 07:38:30;;;;;;;4.45;1.50;;;8.20;99.90;;;;;;4791609;29;20055;-57
2023/10/17 07:40:58;;;;;;;8.63;2.00;;;8.40;99.90;;;;;;4791720;29;20040;-57
2023/10/17 07:43:24;;;;;;;9.48;2.72;;;8.40;99.90;;;;;;4788836;30;20062;-56
2023/10/17 07:46:00;;;;;;;10.35;4.25;;;8.40;99.90;;;;;;4790018;30;20051;-57
2023/10/17 07:48:26;;;;;;;9.25;4.25;;;8.40;99.90;;;;;;4789282;30;20055;-57
2023/10/17 07:50:54;;;;;;;10.32;4.75;;;8.40;99.90;;;;;;4791352;30;20078;-57
2023/10/17 07:53:20;;;;;;;10.30;3.80;;;8.40;99.90;;;;;;4791663;29;20066;-57
2023/10/17 07:55:49;;;;;;;10.50;4.05;;;8.50;99.90;;;;;;4791226;30;20436;-57
2023/10/17 07:58:30;;;;;;;12.15;3.97;;;8.50;99.90;;;;;;4791759;29;20051;-57
2023/10/17 08:00:56;;;;;;;8.23;4.03;;;8.60;99.90;;;;;;4791267;29;20134;-57
2023/10/17 08:03:27;;;;;;;10.45;4.03;;;8.50;99.90;;;;;;4791122;29;20043;-57
2023/10/17 08:06:05;;;;;;;7.65;3.70;;;8.40;99.90;;;;;;4793225;30;20112;-57
2023/10/17 08:08:42;;;;;;;8.02;3.40;;;8.50;99.90;;;;;;4794604;29;20513;-57
2023/10/17 08:11:26;;;;;;;9.70;3.40;;;8.50;99.90;;;;;;4793452;30;20086;-56
2023/10/17 08:13:53;;;;;;;9.02;3.05;;;8.60;99.90;;;;;;4795094;29;20047;-57
2023/10/17 08:16:26;;;;;;;8.07;3.15;;;8.70;99.90;;;;;;4794856;30;20425;-57
2023/10/17 08:19:13;;;;;;;8.57;3.72;;;8.80;99.90;;;;;;4794941;29;20055;-58
2023/10/17 08:22:09;;;;;;;6.70;3.03;;;8.90;99.90;;;;;;4794189;29;20128;-57
2023/10/17 08:27:17;;;;;;;7.72;3.22;;;9.00;99.90;;;;;;4794978;29;20112;-57
2023/10/17 08:29:48;;;;;;;6.68;2.83;;;9.10;99.90;;;;;;4794082;29;20088;-57
2023/10/17 08:35:03;;;;;;;6.85;2.80;;;9.20;99.90;;;;;;4767540;30;20086;-57
2023/10/17 08:37:30;;;;;;;7.35;3.13;;;9.30;99.90;;;;;;4792342;30;20051;-57
2023/10/17 08:39:57;;;;;;;8.98;3.95;;;9.40;99.90;;;;;;4793522;29;20055;-57
2023/10/17 08:44:56;;;;;;;8.75;3.25;;;9.50;96.50;;;;;;4791861;30;20062;-57
2023/10/17 08:47:29;;;;;;;7.50;3.38;;;9.60;97.70;;;;;;4792827;29;20050;-57
2023/10/17 08:50:00;;;;;;;10.48;3.35;;;9.70;93.10;;;;;;4794251;30;20063;-57
2023/10/17 08:52:35;;;;;;;7.82;3.40;;;9.70;79.40;;;;;;4799828;29;20059;-56
2023/10/17 08:55:02;;;;;;;6.05;2.35;;;9.80;84.50;;;;;;4810055;29;20066;-57
2023/10/17 08:57:31;;;;;;;11.50;2.75;;;9.80;78.70;;;;;;4810850;29;20407;-57
2023/10/17 09:00:23;;;;;;;7.28;2.50;;;9.80;37.30;;;;;;4810581;29;20055;-57
2023/10/17 09:02:55;;;;;;;7.00;2.45;;;9.80;34.70;;;;;;4812122;29;20066;-57
2023/10/17 09:05:27;;;;;;;7.88;2.22;;;9.90;25.90;;;;;;4812219;29;20061;-57
2023/10/17 09:07:57;;;;;;;6.28;2.15;;;10.00;22.70;;;;;;4811858;29;20081;-57
2023/10/17 09:10:37;;;;;;;9.77;2.70;;;9.90;12.40;;;;;;4812334;29;20076;-57
2023/10/17 09:15:59;;;;;;;10.15;2.50;;;10.00;8.20;;;;;;4812128;29;20085;-57
2023/10/17 09:18:39;;;;;;;6.18;2.20;;;10.10;15.00;;;;;;4811000;29;20055;-57
2023/10/17 09:21:06;;;;;;;7.80;2.20;;;10.10;10.00;;;;;;4811578;29;20050;-57
2023/10/17 09:23:32;;;;;;;9.50;2.17;;;10.10;9.90;;;;;;4810376;29;20060;-57
2023/10/17 09:26:01;;;;;;;7.30;2.30;;;10.20;16.30;;;;;;4811062;29;20087;-56
2023/10/17 09:28:28;;;;;;;5.85;2.05;;;10.30;16.20;;;;;;4811905;29;20079;-57
2023/10/17 09:31:12;;;;;;;5.25;1.50;;;10.30;5.40;;;;;;4811606;29;20051;-56
2023/10/17 09:33:48;;;;;;;8.02;1.88;;;10.40;1.00;;;;;;4803022;29;20111;-56
2023/10/17 09:36:17;;;;;;;5.47;1.98;;;10.40;1.00;;;;;;4793716;29;20047;-57
2023/10/17 09:38:43;;;;;;;6.05;1.52;;;10.40;1.00;;;;;;4793288;29;20062;-57
2023/10/17 09:41:20;;;;;;;4.00;1.45;;;10.40;1.00;;;;;;4794052;29;20051;-58
2023/10/17 09:43:51;;;;;;;6.15;1.42;;;10.50;1.00;;;;;;4793378;29;20035;-57
2023/10/17 09:46:23;;;;;;;5.47;1.40;;;10.50;1.00;;;;;;4793404;29;20094;-57
2023/10/17 09:48:52;;;;;;;5.00;1.30;;;10.50;1.00;;;;;;4793264;29;20054;-57
2023/10/17 09:51:22;;;;;;;5.80;1.40;;;10.60;1.00;;;;;;4793223;29;20050;-57
2023/10/17 09:53:53;;;;;;;8.07;1.63;;;10.60;1.00;;;;;;4793202;29;20047;-57
2023/10/17 09:56:30;;;;;;;5.88;1.52;;;10.70;1.00;;;;;;4791357;30;20047;-57
2023/10/17 09:59:24;;;;;;;6.55;1.77;;;10.70;1.00;;;;;;4790902;30;20146;-57
2023/10/17 10:01:51;;;;;;;7.65;2.10;;;10.80;1.00;;;;;;4791868;30;20053;-57
2023/10/17 10:04:18;;;;;;;9.30;1.95;;;10.90;1.00;;;;;;4792751;29;20110;-57
2023/10/17 10:06:44;;;;;;;5.60;1.92;;;10.90;1.00;;;;;;4777037;30;20104;-57
2023/10/17 10:09:17;;;;;;;9.75;2.53;;;11.00;1.00;;;;;;4793148;29;20059;-57
2023/10/17 10:11:49;;;;;;;6.47;2.00;;;11.00;1.00;;;;;;4793040;29;20062;-57
2023/10/17 10:14:27;;;;;;;;;;;11.00;1.00;;;;;;4793899;29;20081;-57
2023/10/17 10:16:55;;;;;;;9.57;1.70;;;11.00;1.00;;;;;;4793146;30;20464;-57
2023/10/17 10:19:44;;;;;;;6.72;1.80;;;11.10;1.00;;;;;;4791810;30;20066;-57
2023/10/17 10:22:12;;;;;;;7.72;2.35;;;11.20;1.00;;;;;;4792640;30;20052;-56
2023/10/17 10:24:39;;;;;;;6.60;1.63;;;11.30;1.00;;;;;;4792732;29;20054;-57
2023/10/17 10:27:08;;;;;;;5.68;1.77;;;11.20;1.00;;;;;;4793198;29;20047;-57
2023/10/17 10:29:34;;;;;;;6.43;1.63;;;11.20;1.00;;;;;;4793009;29;20047;-57
2023/10/17 10:32:07;;;;;;;5.68;1.42;;;11.20;1.00;;;;;;4792954;29;20071;-57
2023/10/17 10:34:36;;;;;;;;;;;11.30;1.00;;;;;;4791664;30;20114;-57
2023/10/17 10:37:09;;;;;;;6.20;1.55;;;11.30;1.00;;;;;;4793285;29;19929;-57
2023/10/17 10:39:37;;;;;;;4.75;1.15;;;11.30;1.00;;;;;;4792988;29;20158;-57
2023/10/17 10:42:07;;;;;;;5.03;1.10;;;11.40;1.00;;;;;;4792836;29;20055;-57
2023/10/17 10:44:42;;;;;;;3.95;1.05;;;11.30;1.00;;;;;;4792952;29;20052;-57
2023/10/17 10:47:08;;;;;;;5.45;1.48;;;11.40;1.00;;;;;;4798050;29;20125;-57
2023/10/17 10:49:34;;;;;;;3.90;1.30;;;11.40;1.00;;;;;;4810989;29;20502;-56
2023/10/17 10:51:59;;;;;;;5.82;1.60;;;11.40;1.00;;;;;;4810394;29;20061;-56
2023/10/17 10:54:45;;;;;;;3.90;1.40;;;11.60;1.00;;;;;;4810607;29;20078;-57
2023/10/17 10:57:12;;;;;;;5.88;1.50;;;11.60;1.00;;;;;;4810792;29;20121;-57
2023/10/17 10:59:49;;;;;;;5.65;2.08;;;11.60;1.00;;;;;;4810318;29;20047;-57
2023/10/17 11:02:14;;;;;;;4.97;1.90;;;11.60;1.00;;;;;;4809473;29;20035;-57
2023/10/17 11:04:40;;;;;;;5.25;1.85;;;11.70;1.00;;;;;;4810451;29;20054;-56
2023/10/17 11:07:22;;;;;;;5.28;1.83;;;11.60;1.00;;;;;;4810835;29;20055;-57
2023/10/17 11:10:18;;;;;;;7.43;1.80;;;11.70;1.00;;;;;;4809371;29;20051;-57
2023/10/17 11:12:54;;;;;;;5.57;1.75;;;11.80;1.00;;;;;;4793073;29;20062;-57
2023/10/17 11:15:26;;;;;;;4.82;1.60;;;11.80;1.00;;;;;;4813934;29;20115;-57
2023/10/17 11:18:00;;;;;;;6.53;1.80;;;11.90;1.00;;;;;;4813660;29;20051;-57
2023/10/17 11:20:27;;;;;;;6.75;2.05;;;11.80;1.00;;;;;;4812112;29;20051;-56
2023/10/17 11:22:53;;;;;;;5.03;1.70;;;11.80;1.00;;;;;;4802782;29;20047;-57
2023/10/17 11:25:26;;;;;;;5.65;1.60;;;11.90;1.00;;;;;;4795508;29;20063;-57
2023/10/17 11:28:16;;;;;;;6.78;1.70;;;12.00;1.00;;;;;;4794381;30;20101;-57
2023/10/17 11:30:40;;;;;;;7.32;1.77;;;12.10;1.00;;;;;;4793778;30;20059;-57
2023/10/17 11:33:11;;;;;;;6.05;1.60;;;12.20;1.00;;;;;;4793790;29;20071;-57
2023/10/17 11:35:38;;;;;;;5.07;1.60;;;12.10;1.00;;;;;;4795779;29;20082;-56
2023/10/17 11:38:03;;;;;;;8.60;2.00;;;12.20;1.00;;;;;;4795363;29;20051;-56
2023/10/17 11:40:38;;;;;;;5.07;1.75;;;12.20;1.00;;;;;;4795377;29;20103;-57
2023/10/17 11:43:20;;;;;;;4.57;1.77;;;12.30;1.00;;;;;;4793912;29;20260;-57
2023/10/17 11:45:47;;;;;;;5.18;2.03;;;12.30;1.00;;;;;;4795184;29;20055;-57
2023/10/17 11:48:31;;;;;;;7.72;1.80;;;12.30;1.00;;;;;;4795748;29;20118;-57
2023/10/17 11:51:28;;;;;;;7.20;1.60;;;12.30;1.00;;;;;;4795002;29;20070;-57
2023/10/17 11:54:05;;;;;;;3.85;1.40;;;12.40;1.00;;;;;;4795304;30;20155;-56
2023/10/17 11:56:32;;;;;;;7.20;1.60;;;12.40;1.00;;;;;;4795003;29;20055;-56
2023/10/17 11:59:01;;;;;;;6.60;1.83;;;12.40;1.00;;;;;;4795073;29;20161;-57
2023/10/17 12:01:27;;;;;;;4.65;1.58;;;12.30;1.00;;;;;;4795353;29;20084;-57
2023/10/17 12:03:59;;;;;;;6.35;1.33;;;12.30;1.00;;;;;;4795129;29;20106;-57
2023/10/17 12:06:28;;;;;;;7.30;1.70;;;12.30;1.00;;;;;;4793989;29;20063;-56
2023/10/17 12:08:57;;;;;;;8.88;1.98;;;12.40;1.00;;;;;;4794855;29;20055;-57
2023/10/17 12:11:26;;;;;;;7.20;1.58;;;12.30;1.00;;;;;;4795114;29;20112;-56
2023/10/17 12:13:52;;;;;;;5.18;1.50;;;12.30;1.00;;;;;;4794955;29;20081;-57
2023/10/17 12:16:23;;;;;;;5.75;1.52;;;12.30;1.00;;;;;;4794731;29;20058;-57
2023/10/17 12:18:51;;;;;;;5.47;1.40;;;12.30;1.00;;;;;;4794974;29;20123;-57
2023/10/17 12:21:16;;;;;;;3.95;1.30;;;12.20;1.00;;;;;;4794528;29;20055;-57
2023/10/17 12:23:42;;;;;;;5.75;1.60;;;12.20;1.00;;;;;;4794574;29;20053;-57
2023/10/17 12:26:13;;;;;;;4.88;1.55;;;12.10;1.00;;;;;;4794277;29;20083;-57
2023/10/17 12:28:43;;;;;;;4.68;1.77;;;12.00;1.00;;;;;;4793355;30;20485;-57
2023/10/17 12:31:16;;;;;;;4.00;1.38;;;12.00;1.00;;;;;;4794608;29;20047;-56
2023/10/17 12:33:43;;;;;;;4.40;1.45;;;12.00;1.00;;;;;;4794303;29;20059;-56
2023/10/17 12:36:09;;;;;;;6.53;1.75;;;12.00;1.00;;;;;;4794503;29;20051;-56
2023/10/17 12:38:36;;;;;;;7.35;1.73;;;12.00;1.00;;;;;;4794279;29;20056;-57
2023/10/17 12:41:06;;;;;;;4.45;1.40;;;11.90;1.00;;;;;;4794739;29;20116;-57
2023/10/17 12:43:35;;;;;;;5.07;1.75;;;12.00;1.00;;;;;;4794419;29;20057;-57
2023/10/17 12:46:01;;;;;;;5.88;1.80;;;11.90;1.00;;;;;;4794156;29;20047;-57
2023/10/17 12:48:28;;;;;;;5.65;1.40;;;12.00;1.00;;;;;;4794635;29;20050;-57
2023/10/17 12:50:54;;;;;;;4.68;1.52;;;12.00;1.00;;;;;;4794128;29;20108;-56
2023/10/17 12:53:19;;;;;;;4.75;1.42;;;12.00;1.00;;;;;;4793437;29;20088;-56
2023/10/17 12:55:45;;;;;;;4.50;1.20;;;11.90;1.00;;;;;;4792979;29;20059;-57
2023/10/17 12:58:11;;;;;;;3.97;1.20;;;12.00;1.00;;;;;;4794277;29;20043;-56
2023/10/17 13:00:41;;;;;;;4.68;1.20;;;12.00;1.00;;;;;;4793685;29;20062;-56
2023/10/17 13:03:07;;;;;;;7.40;2.22;;;12.00;1.00;;;;;;4793385;29;20059;-56
2023/10/17 13:05:33;;;;;;;8.90;1.70;;;11.90;1.00;;;;;;4793668;29;20293;-57
2023/10/17 13:07:58;;;;;;;4.72;1.60;;;11.90;1.00;;;;;;4791902;30;20059;-56
2023/10/17 13:10:26;;;;;;;5.28;1.58;;;11.90;1.00;;;;;;4793694;29;20138;-57
2023/10/17 13:12:52;;;;;;;4.95;1.42;;;11.90;1.00;;;;;;4791967;30;20051;-57
2023/10/17 13:15:18;;;;;;;7.43;1.80;;;11.90;1.00;;;;;;4792000;29;20047;-56
2023/10/17 13:17:44;;;;;;;4.88;1.70;;;11.90;1.00;;;;;;4793564;29;20071;-57
2023/10/17 13:20:11;;;;;;;4.90;2.03;;;11.90;1.00;;;;;;4793760;30;20084;-56
2023/10/17 13:22:42;;;;;;;4.28;1.50;;;11.90;1.00;;;;;;4793065;29;20097;-56
2023/10/17 13:25:10;;;;;;;6.32;1.92;;;11.90;1.00;;;;;;4792543;29;20079;-57
2023/10/17 13:27:41;;;;;;;3.65;1.40;;;12.00;1.00;;;;;;4792779;29;20131;-56
2023/10/17 13:30:07;;;;;;;5.40;1.60;;;11.90;1.00;;;;;;4792787;29;20061;-57
2023/10/17 13:32:33;;;;;;;4.47;1.38;;;12.00;1.00;;;;;;4792415;30;20085;-57
2023/10/17 13:35:00;;;;;;;4.57;1.58;;;11.90;1.00;;;;;;4792150;29;20051;-57
2023/10/17 13:37:27;;;;;;;4.05;1.45;;;12.00;1.00;;;;;;4792765;29;20046;-57
2023/10/17 13:39:53;;;;;;;4.80;1.50;;;12.00;1.00;;;;;;4793266;30;20429;-57
2023/10/17 13:42:19;;;;;;;6.30;1.60;;;11.90;1.00;;;;;;4792739;29;20058;-57
2023/10/17 13:44:45;;;;;;;5.05;1.38;;;11.90;1.00;;;;;;4791726;30;20063;-57
2023/10/17 13:47:10;;;;;;;4.18;1.38;;;11.90;1.00;;;;;;4791982;29;20084;-57
2023/10/17 13:49:36;;;;;;;3.58;1.40;;;12.00;1.00;;;;;;4793093;30;20078;-57
2023/10/17 13:52:03;;;;;;;8.63;1.70;;;12.00;1.00;;;;;;4791813;29;20044;-57
2023/10/17 13:54:34;;;;;;;6.47;1.90;;;12.00;1.00;;;;;;4792757;29;20078;-57
2023/10/17 13:57:09;;;;;;;5.25;1.75;;;12.00;1.00;;;;;;4793475;29;20520;-57
2023/10/17 13:59:38;;;;;;;6.50;2.00;;;12.00;1.00;;;;;;4791710;29;20063;-56
2023/10/17 14:02:07;;;;;;;5.00;1.48;;;12.00;1.00;;;;;;4792343;29;20072;-57
2023/10/17 14:04:36;;;;;;;6.30;1.70;;;12.00;1.00;;;;;;4792241;29;20078;-57
2023/10/17 14:07:03;;;;;;;6.68;1.70;;;12.00;1.00;;;;;;4793076;29;20059;-57
2023/10/17 14:09:30;;;;;;;6.22;1.88;;;12.00;1.00;;;;;;4792715;29;20055;-56
2023/10/17 14:11:56;;;;;;;7.43;1.98;;;12.00;1.00;;;;;;4791872;29;20130;-57
2023/10/17 14:14:25;;;;;;;5.53;1.75;;;12.00;1.00;;;;;;4792245;29;20066;-57
2023/10/17 14:16:56;;;;;;;6.88;2.00;;;12.00;1.00;;;;;;4792804;29;20043;-57
2023/10/17 14:19:37;;;;;;;4.15;1.48;;;12.00;1.00;;;;;;4791646;30;20071;-57
2023/10/17 14:27:29;;;;;;;6.38;1.92;;;12.10;1.00;;;;;;4791377;30;20790;-55
2023/10/17 14:30:16;;;;;;;4.30;1.33;;;12.10;1.00;;;;;;4791523;30;20062;-57
2023/10/17 14:32:41;;;;;;;3.95;1.40;;;12.10;1.00;;;;;;4792490;29;20148;-56
2023/10/17 14:35:07;;;;;;;6.60;1.50;;;12.10;1.00;;;;;;4792726;29;20051;-56
2023/10/17 14:37:34;;;;;;;4.43;1.40;;;12.10;1.00;;;;;;4792819;29;20131;-56
2023/10/17 14:40:00;;;;;;;5.80;1.60;;;12.10;1.00;;;;;;4793057;29;20125;-57
2023/10/17 14:42:27;;;;;;;4.03;1.45;;;12.00;1.00;;;;;;4792716;29;20126;-56
2023/10/17 14:44:55;;;;;;;4.07;1.40;;;12.10;1.00;;;;;;4793075;29;20573;-57
2023/10/17 14:47:21;;;;;;;5.90;1.63;;;12.10;1.00;;;;;;4795858;29;20122;-57
2023/10/17 14:49:48;;;;;;;5.30;1.60;;;12.00;1.00;;;;;;4796020;29;20058;-56
2023/10/17 14:52:18;;;;;;;4.10;1.13;;;12.10;1.00;;;;;;4794540;30;20059;-57
2023/10/17 14:54:43;;;;;;;3.38;1.17;;;12.00;1.00;;;;;;4795321;29;20051;-57
2023/10/17 14:57:10;;;;;;;5.28;1.40;;;12.10;1.00;;;;;;4794657;30;20134;-57
2023/10/17 14:59:39;;;;;;;4.50;1.30;;;12.00;1.00;;;;;;4795881;29;20103;-57
2023/10/17 15:02:05;;;;;;;2.75;1.02;;;12.10;1.00;;;;;;4796126;29;20055;-57
2023/10/17 15:04:31;;;;;;;5.38;1.30;;;12.10;1.00;;;;;;4794044;29;20051;-56
2023/10/17 15:06:58;;;;;;;5.85;1.23;;;12.10;1.00;;;;;;4796309;29;20043;-57
2023/10/17 15:09:26;;;;;;;3.80;1.20;;;12.00;1.00;;;;;;4796099;29;20047;-57
2023/10/17 15:11:53;;;;;;;6.10;1.13;;;12.00;1.00;;;;;;4795675;29;20132;-57
2023/10/17 15:14:20;;;;;;;6.28;1.20;;;12.00;1.00;;;;;;4796045;29;20079;-57
2023/10/17 15:16:46;;;;;;;6.63;1.10;;;11.90;1.00;;;;;;4795648;29;20162;-57
2023/10/17 15:19:12;;;;;;;4.13;1.15;;;11.90;1.00;;;;;;4795614;29;20082;-57
2023/10/17 15:21:37;;;;;;;4.80;1.23;;;11.90;1.00;;;;;;4795675;29;20051;-57
2023/10/17 15:24:04;;;;;;;3.30;1.20;;;11.90;1.00;;;;;;4795567;29;20226;-56
2023/10/17 15:26:31;;;;;;;4.25;1.15;;;11.80;1.00;;;;;;4795472;29;20059;-56
2023/10/17 15:28:56;;;;;;;4.53;1.27;;;11.70;1.00;;;;;;4793722;29;20508;-57
2023/10/17 15:31:27;;;;;;;5.95;1.13;;;11.70;1.00;;;;;;4795441;29;20058;-57
2023/10/17 15:33:53;;;;;;;4.75;1.10;;;11.70;1.00;;;;;;4795075;30;20063;-57
2023/10/17 15:36:25;;;;;;;5.05;1.40;;;11.60;1.00;;;;;;4795715;29;20126;-57
2023/10/17 15:38:51;;;;;;;3.03;1.13;;;11.60;1.00;;;;;;4795048;29;20055;-59
2023/10/17 15:41:17;;;;;;;4.15;1.15;;;11.50;1.00;;;;;;4794898;29;20054;-57